Terminal Aerodrome Forecast
Issued by NWS

Home | Current Version | Previous Version | Text Only | Print | Product List | Glossary On
Versions: 1 2 3 4 5 6 7 8 9 10 11 12
000
FTPA31 PHFO 201726
TAFHKO
TAF
PHKO 201726Z 2018/2118 10005KT P6SM VCSH SCT020 BKN050 OVC150
     FM202000 23008KT P6SM VCSH SCT025 BKN050 OVC250
     FM210500 11005KT P6SM SCT050 BKN100 OVC250=

USA.gov is the U.S. government's official web portal to all federal, state and local government web resources and services.